createdAt,value
2018-12-10T00:00:10.299Z,5.20
2018-12-10T00:02:38.489Z,5.10
2018-12-10T00:05:06.864Z,5.00
2018-12-10T00:07:35.015Z,4.90
2018-12-10T00:10:03.337Z,4.90
2018-12-10T00:12:31.467Z,5.10
2018-12-10T00:14:59.607Z,5.10
2018-12-10T00:17:27.742Z,5.20
2018-12-10T00:19:56.015Z,5.20
2018-12-10T00:22:24.145Z,5.30
2018-12-10T00:24:52.352Z,5.50
2018-12-10T00:27:20.522Z,5.70
2018-12-10T00:29:48.710Z,5.90
2018-12-10T00:32:17.224Z,5.90
2018-12-10T00:34:45.402Z,5.80
2018-12-10T00:37:13.747Z,5.80
2018-12-10T00:39:41.934Z,5.70
2018-12-10T00:42:10.144Z,5.70
2018-12-10T00:44:38.427Z,5.70
2018-12-10T00:47:06.566Z,5.20
2018-12-10T00:49:35.543Z,4.90
2018-12-10T00:52:04.386Z,4.70
2018-12-10T00:54:32.581Z,4.60
2018-12-10T00:57:00.715Z,4.70
2018-12-10T00:59:28.899Z,4.90
2018-12-10T01:01:58.022Z,5.20
2018-12-10T01:04:26.233Z,5.20
2018-12-10T01:06:54.433Z,5.10
2018-12-10T01:09:22.800Z,5.00
2018-12-10T01:11:51.012Z,4.90
2018-12-10T01:14:19.247Z,4.90
2018-12-10T01:16:47.397Z,4.90
2018-12-10T01:19:15.671Z,4.90
2018-12-10T01:21:43.798Z,5.00
2018-12-10T01:24:11.935Z,5.20
2018-12-10T01:26:40.249Z,5.30
2018-12-10T01:29:08.391Z,5.40
2018-12-10T01:31:36.593Z,5.50
2018-12-10T01:34:04.748Z,5.50
2018-12-10T01:36:32.962Z,5.50
2018-12-10T01:39:01.166Z,5.40
2018-12-10T01:41:29.345Z,5.40
2018-12-10T01:43:57.594Z,5.20
2018-12-10T01:46:25.785Z,5.10
2018-12-10T01:48:54.121Z,5.20
2018-12-10T01:51:22.249Z,5.30
2018-12-10T01:53:50.386Z,5.30
2018-12-10T01:56:18.536Z,5.30
2018-12-10T01:58:46.661Z,5.20
2018-12-10T02:01:15.029Z,5.20
2018-12-10T02:03:43.442Z,5.10
2018-12-10T02:06:11.950Z,5.10
2018-12-10T02:08:40.143Z,5.10
2018-12-10T02:11:08.360Z,5.10
2018-12-10T02:13:36.474Z,5.20
2018-12-10T02:16:04.729Z,5.20
2018-12-10T02:18:32.857Z,5.10
2018-12-10T02:21:00.981Z,5.10
2018-12-10T02:23:29.219Z,5.20
2018-12-10T02:25:57.477Z,5.20
2018-12-10T02:28:31.477Z,5.20
2018-12-10T02:30:59.623Z,5.20
2018-12-10T02:33:27.839Z,5.10
2018-12-10T02:35:55.969Z,5.00
2018-12-10T02:38:24.284Z,4.80
2018-12-10T02:40:52.474Z,4.70
2018-12-10T02:43:20.676Z,4.60
2018-12-10T02:45:48.936Z,4.50
2018-12-10T02:48:17.130Z,4.50
2018-12-10T02:50:45.338Z,4.70
2018-12-10T02:53:13.561Z,4.80
2018-12-10T02:55:41.837Z,4.80
2018-12-10T02:58:10.007Z,4.80
2018-12-10T03:00:38.215Z,4.70
2018-12-10T03:03:06.358Z,4.60
2018-12-10T03:05:34.479Z,4.50
2018-12-10T03:08:02.618Z,4.50
2018-12-10T03:10:30.856Z,4.50
2018-12-10T03:12:59.158Z,4.50
2018-12-10T03:15:27.393Z,4.50
2018-12-10T03:17:55.598Z,4.60
2018-12-10T03:20:23.819Z,4.70
2018-12-10T03:22:52.075Z,4.60
2018-12-10T03:25:20.307Z,4.70
2018-12-10T03:27:48.459Z,4.70
2018-12-10T03:30:16.631Z,4.70
2018-12-10T03:32:44.760Z,4.60
2018-12-10T03:35:12.893Z,4.60
2018-12-10T03:37:41.371Z,4.60
2018-12-10T03:40:09.481Z,4.50
2018-12-10T03:42:37.694Z,4.60
2018-12-10T03:45:06.999Z,4.70
2018-12-10T03:47:35.138Z,4.80
2018-12-10T03:50:04.805Z,4.90
2018-12-10T03:52:35.029Z,5.30
2018-12-10T03:55:03.257Z,5.40
2018-12-10T03:57:31.516Z,5.40
2018-12-10T03:59:59.796Z,5.30
2018-12-10T04:02:27.990Z,5.20
2018-12-10T04:04:56.131Z,5.10
2018-12-10T04:07:24.305Z,5.10
2018-12-10T04:09:52.698Z,5.30
2018-12-10T04:12:20.892Z,5.30
2018-12-10T04:14:49.206Z,5.40
2018-12-10T04:17:17.634Z,5.40
2018-12-10T04:19:45.850Z,5.30
2018-12-10T04:22:14.083Z,5.20
2018-12-10T04:24:42.399Z,5.20
2018-12-10T04:27:10.591Z,5.10
2018-12-10T04:29:38.815Z,5.00
2018-12-10T04:32:07.003Z,5.00
2018-12-10T04:34:35.250Z,5.00
2018-12-10T04:37:03.634Z,5.00
2018-12-10T04:39:31.890Z,5.00
2018-12-10T04:42:00.039Z,5.00
2018-12-10T04:44:28.265Z,5.00
2018-12-10T04:46:56.474Z,5.00
2018-12-10T04:49:25.312Z,5.10
2018-12-10T04:51:53.517Z,5.20
2018-12-10T04:54:21.639Z,5.30
2018-12-10T04:56:50.450Z,5.40
2018-12-10T04:59:18.742Z,5.30
2018-12-10T05:01:46.951Z,5.00
2018-12-10T05:04:15.093Z,4.70
2018-12-10T05:06:43.229Z,4.60
2018-12-10T05:09:11.423Z,4.60
2018-12-10T05:11:39.567Z,4.50
2018-12-10T05:14:07.767Z,4.40
2018-12-10T05:16:36.022Z,4.40
2018-12-10T05:19:04.246Z,4.40
2018-12-10T05:21:32.385Z,4.40
2018-12-10T05:24:00.509Z,4.60
2018-12-10T05:26:28.710Z,4.90
2018-12-10T05:28:56.861Z,5.00
2018-12-10T05:31:25.244Z,5.00
2018-12-10T05:33:53.769Z,4.90
2018-12-10T05:36:22.564Z,4.80
2018-12-10T05:38:50.754Z,4.70
2018-12-10T05:41:18.903Z,4.70
2018-12-10T05:43:47.071Z,4.60
2018-12-10T05:46:15.891Z,4.60
2018-12-10T05:48:44.064Z,4.60
2018-12-10T05:51:12.258Z,4.60
2018-12-10T05:53:40.679Z,4.60
2018-12-10T05:56:08.894Z,4.50
2018-12-10T05:58:37.142Z,4.40
2018-12-10T06:01:05.353Z,4.40
2018-12-10T06:03:33.516Z,4.40
2018-12-10T06:06:01.654Z,4.40
2018-12-10T06:08:29.868Z,4.40
2018-12-10T06:10:58.005Z,4.40
2018-12-10T06:13:26.312Z,4.40
2018-12-10T06:15:54.512Z,4.40
2018-12-10T06:18:22.650Z,4.40
2018-12-10T06:20:50.797Z,4.50
2018-12-10T06:23:18.947Z,4.70
2018-12-10T06:25:47.295Z,5.00
2018-12-10T06:28:15.498Z,5.20
2018-12-10T06:30:43.634Z,5.30
2018-12-10T06:33:11.789Z,5.20
2018-12-10T06:35:39.999Z,5.10
2018-12-10T06:38:08.182Z,5.00
2018-12-10T06:40:36.371Z,4.80
2018-12-10T06:43:04.621Z,4.70
2018-12-10T06:45:32.864Z,4.60
2018-12-10T06:48:01.090Z,4.40
2018-12-10T06:50:29.766Z,4.30
2018-12-10T06:52:58.023Z,4.30
2018-12-10T06:55:26.249Z,4.20
2018-12-10T06:57:54.616Z,4.40
2018-12-10T07:00:22.748Z,4.50
2018-12-10T07:02:51.090Z,4.10
2018-12-10T07:05:19.221Z,3.80
2018-12-10T07:07:47.483Z,3.80
2018-12-10T07:10:15.654Z,3.80
2018-12-10T07:12:43.889Z,3.90
2018-12-10T07:15:12.153Z,4.00
2018-12-10T07:17:41.364Z,4.00
2018-12-10T07:20:09.555Z,4.00
2018-12-10T07:22:37.692Z,4.00
2018-12-10T07:25:05.923Z,3.90
2018-12-10T07:27:35.489Z,3.80
2018-12-10T07:30:05.351Z,3.80
2018-12-10T07:32:33.493Z,3.70
2018-12-10T07:35:01.765Z,3.70
2018-12-10T07:37:29.974Z,3.70
2018-12-10T07:39:58.166Z,3.70
2018-12-10T07:42:26.360Z,3.70
2018-12-10T07:44:54.508Z,3.70
2018-12-10T07:47:22.635Z,3.80
2018-12-10T07:49:50.826Z,3.80
2018-12-10T07:52:19.023Z,3.80
2018-12-10T07:54:47.245Z,3.90
2018-12-10T07:57:15.383Z,4.00
2018-12-10T07:59:43.540Z,4.20
2018-12-10T08:02:11.916Z,4.40
2018-12-10T08:04:40.223Z,4.60
2018-12-10T08:07:08.468Z,4.90
2018-12-10T08:09:36.616Z,4.90
2018-12-10T08:12:04.850Z,4.70
2018-12-10T08:14:32.986Z,4.50
2018-12-10T08:17:01.267Z,4.30
2018-12-10T08:19:29.565Z,4.10
2018-12-10T08:21:57.733Z,4.00
2018-12-10T08:24:25.926Z,4.00
2018-12-10T08:26:54.073Z,4.00
2018-12-10T08:29:22.204Z,4.00
2018-12-10T08:31:50.427Z,4.20
2018-12-10T08:34:18.812Z,4.20
2018-12-10T08:36:47.054Z,4.30
2018-12-10T08:39:15.256Z,4.40
2018-12-10T08:41:43.528Z,4.90
2018-12-10T08:44:11.656Z,5.50
2018-12-10T08:46:39.851Z,5.80
2018-12-10T08:49:07.995Z,5.80
2018-12-10T08:51:36.227Z,5.60
2018-12-10T08:54:04.418Z,5.50
2018-12-10T08:56:34.320Z,5.40
2018-12-10T08:59:02.846Z,5.20
2018-12-10T09:01:31.009Z,5.00
2018-12-10T09:03:59.145Z,5.00
2018-12-10T09:06:27.282Z,5.10
2018-12-10T09:08:55.494Z,5.50
2018-12-10T09:11:23.607Z,6.10
2018-12-10T09:13:51.794Z,6.50
2018-12-10T09:16:20.037Z,6.70
2018-12-10T09:18:48.250Z,6.80
2018-12-10T09:21:16.731Z,6.80
2018-12-10T09:23:44.942Z,6.90
2018-12-10T09:26:13.062Z,7.10
2018-12-10T09:28:41.193Z,7.30
2018-12-10T09:31:09.447Z,7.50
2018-12-10T09:33:37.578Z,6.80
2018-12-10T09:36:05.742Z,6.00
2018-12-10T09:38:33.864Z,5.60
2018-12-10T09:41:02.084Z,5.30
2018-12-10T09:43:30.224Z,5.10
2018-12-10T09:45:58.362Z,5.10
2018-12-10T09:48:26.582Z,5.10
2018-12-10T09:50:54.723Z,5.10
2018-12-10T09:53:22.932Z,5.40
2018-12-10T09:55:51.079Z,5.90
2018-12-10T09:58:19.484Z,6.70
2018-12-10T10:00:47.687Z,7.30
2018-12-10T10:03:15.915Z,7.50
2018-12-10T10:05:44.213Z,7.40
2018-12-10T10:08:12.503Z,7.20
2018-12-10T10:10:40.685Z,7.00
2018-12-10T10:13:08.884Z,6.80
2018-12-10T10:15:37.055Z,6.60
2018-12-10T10:18:05.219Z,6.40
2018-12-10T10:20:33.769Z,6.30
2018-12-10T10:23:02.068Z,6.30
2018-12-10T10:25:30.239Z,6.40
2018-12-10T10:27:58.470Z,6.40
2018-12-10T10:30:26.665Z,6.50
2018-12-10T10:32:54.841Z,6.60
2018-12-10T10:35:22.994Z,6.80
2018-12-10T10:37:51.142Z,7.10
2018-12-10T10:40:19.284Z,7.30
2018-12-10T10:42:47.637Z,7.20
2018-12-10T10:45:15.788Z,7.00
2018-12-10T10:47:44.013Z,6.80
2018-12-10T10:50:12.246Z,6.60
2018-12-10T10:52:40.436Z,6.60
2018-12-10T10:55:08.692Z,6.60
2018-12-10T10:57:36.882Z,6.60
2018-12-10T11:00:11.108Z,6.60
2018-12-10T11:02:46.378Z,6.70
2018-12-10T11:05:14.500Z,6.90
2018-12-10T11:07:42.691Z,7.00
2018-12-10T11:10:10.847Z,7.00
2018-12-10T11:12:39.657Z,7.20
2018-12-10T11:15:07.853Z,7.60
2018-12-10T11:17:36.038Z,8.00
2018-12-10T11:20:06.827Z,8.30
2018-12-10T11:22:34.968Z,8.20
2018-12-10T11:25:03.959Z,7.90
2018-12-10T11:27:32.301Z,7.50
2018-12-10T11:30:00.540Z,7.30
2018-12-10T11:32:28.782Z,7.20
2018-12-10T11:34:56.928Z,7.20
2018-12-10T11:37:25.136Z,7.10
2018-12-10T11:39:53.331Z,7.20
2018-12-10T11:42:21.567Z,7.40
2018-12-10T11:44:49.694Z,7.60
2018-12-10T11:47:18.038Z,7.40
2018-12-10T11:49:46.351Z,7.20
2018-12-10T11:52:14.492Z,7.20
2018-12-10T11:54:42.781Z,7.20
2018-12-10T11:57:10.917Z,7.10
2018-12-10T11:59:39.183Z,6.90
2018-12-10T12:02:07.325Z,6.90
2018-12-10T12:04:35.720Z,6.90
2018-12-10T12:07:03.925Z,6.90
2018-12-10T12:09:32.070Z,6.90
2018-12-10T12:12:00.400Z,6.90
2018-12-10T12:14:28.551Z,6.70
2018-12-10T12:16:56.962Z,6.60
2018-12-10T12:19:25.177Z,6.50
2018-12-10T12:21:53.470Z,6.40
2018-12-10T12:24:21.603Z,6.40
2018-12-10T12:26:49.998Z,6.40
2018-12-10T12:29:18.177Z,6.30
2018-12-10T12:31:46.323Z,6.10
2018-12-10T12:34:14.731Z,5.90
2018-12-10T12:36:42.922Z,5.70
2018-12-10T12:39:11.066Z,5.60
2018-12-10T12:41:39.272Z,5.60
2018-12-10T12:44:07.505Z,5.50
2018-12-10T12:46:35.629Z,5.50
2018-12-10T12:49:03.859Z,5.40
2018-12-10T12:51:32.001Z,5.50
2018-12-10T12:54:00.137Z,5.70
2018-12-10T12:56:28.306Z,5.80
2018-12-10T12:58:56.446Z,5.90
2018-12-10T13:01:24.592Z,6.10
2018-12-10T13:03:52.782Z,6.20
2018-12-10T13:06:20.912Z,6.30
2018-12-10T13:08:49.080Z,6.40
2018-12-10T13:11:17.340Z,6.40
2018-12-10T13:13:45.751Z,6.50
2018-12-10T13:16:13.874Z,6.60
2018-12-10T13:18:42.160Z,6.80
2018-12-10T13:21:10.303Z,7.00
2018-12-10T13:23:38.560Z,7.10
2018-12-10T13:26:06.769Z,7.20
2018-12-10T13:28:36.875Z,7.20
2018-12-10T13:31:05.020Z,7.10
2018-12-10T13:33:33.255Z,7.20
2018-12-10T13:36:01.405Z,7.40
2018-12-10T13:38:29.533Z,7.70
2018-12-10T13:40:57.701Z,7.60
2018-12-10T13:43:25.825Z,6.40
2018-12-10T13:45:54.018Z,5.80
2018-12-10T13:48:22.296Z,5.50
2018-12-10T13:50:50.571Z,5.50
2018-12-10T13:53:18.704Z,5.50
2018-12-10T13:55:47.013Z,5.50
2018-12-10T13:58:15.392Z,5.60
2018-12-10T14:00:43.626Z,5.60
2018-12-10T14:03:11.748Z,5.60
2018-12-10T14:05:39.894Z,5.60
2018-12-10T14:08:09.034Z,5.80
2018-12-10T14:10:37.155Z,5.90
2018-12-10T14:13:05.589Z,5.90
2018-12-10T14:15:33.773Z,5.80
2018-12-10T14:18:01.980Z,5.60
2018-12-10T14:20:30.155Z,5.50
2018-12-10T14:22:58.577Z,5.30
2018-12-10T14:25:26.819Z,5.10
2018-12-10T14:27:54.950Z,4.90
2018-12-10T14:30:23.549Z,4.80
2018-12-10T14:32:51.805Z,4.70
2018-12-10T14:35:19.937Z,4.60
2018-12-10T14:37:48.145Z,4.60
2018-12-10T14:40:16.273Z,4.70
2018-12-10T14:42:50.989Z,4.70
2018-12-10T14:45:19.128Z,4.70
2018-12-10T14:47:50.941Z,4.70
2018-12-10T14:50:19.195Z,4.70
2018-12-10T14:52:47.418Z,4.80
2018-12-10T14:55:15.569Z,4.90
2018-12-10T14:57:43.713Z,5.20
2018-12-10T15:00:12.228Z,5.40
2018-12-10T15:02:40.483Z,5.70
2018-12-10T15:05:08.968Z,5.70
2018-12-10T15:07:37.377Z,5.70
2018-12-10T15:10:05.777Z,5.80
2018-12-10T15:12:33.937Z,5.80
2018-12-10T15:15:02.084Z,5.90
2018-12-10T15:17:30.212Z,6.00
2018-12-10T15:19:58.474Z,6.10
2018-12-10T15:22:26.615Z,6.10
2018-12-10T15:24:54.755Z,6.20
2018-12-10T15:27:22.888Z,6.30
2018-12-10T15:29:51.243Z,6.20
2018-12-10T15:32:19.531Z,6.10
2018-12-10T15:34:47.691Z,5.90
2018-12-10T15:37:15.837Z,5.90
2018-12-10T15:39:44.003Z,6.00
2018-12-10T15:42:12.183Z,6.00
2018-12-10T15:44:40.301Z,6.10
2018-12-10T15:47:08.513Z,6.20
2018-12-10T15:49:36.663Z,6.20
2018-12-10T15:52:05.668Z,6.20
2018-12-10T15:54:34.061Z,6.10
2018-12-10T15:57:02.403Z,5.90
2018-12-10T15:59:30.543Z,5.80
2018-12-10T16:01:58.696Z,5.70
2018-12-10T16:04:28.821Z,5.60
2018-12-10T16:06:56.978Z,5.60
2018-12-10T16:09:25.134Z,5.50
2018-12-10T16:11:53.310Z,5.60
2018-12-10T16:14:21.527Z,5.60
2018-12-10T16:16:49.661Z,5.70
2018-12-10T16:19:17.827Z,5.70
2018-12-10T16:21:46.094Z,5.80
2018-12-10T16:24:14.251Z,5.90
2018-12-10T16:26:42.541Z,5.80
2018-12-10T16:29:10.673Z,5.80
2018-12-10T16:31:38.831Z,5.70
2018-12-10T16:34:07.101Z,5.60
2018-12-10T16:36:35.256Z,5.60
2018-12-10T16:39:06.477Z,5.60
2018-12-10T16:41:35.581Z,5.70
2018-12-10T16:44:03.950Z,5.70
2018-12-10T16:46:32.098Z,5.60
2018-12-10T16:49:00.263Z,5.60
2018-12-10T16:51:28.481Z,5.70
2018-12-10T16:53:56.618Z,5.70
2018-12-10T16:56:25.269Z,5.80
2018-12-10T16:58:53.385Z,5.90
2018-12-10T17:01:21.524Z,6.00
2018-12-10T17:03:50.296Z,6.20
2018-12-10T17:06:18.430Z,6.20
2018-12-10T17:08:46.624Z,6.00
2018-12-10T17:11:14.907Z,5.90
2018-12-10T17:13:43.028Z,5.80
2018-12-10T17:16:11.438Z,5.80
2018-12-10T17:18:40.435Z,5.80
2018-12-10T17:21:08.643Z,5.70
2018-12-10T17:23:36.896Z,5.60
2018-12-10T17:26:05.072Z,5.40
2018-12-10T17:28:33.218Z,5.30
2018-12-10T17:31:01.414Z,5.30
2018-12-10T17:33:30.245Z,5.30
2018-12-10T17:35:58.830Z,5.40
2018-12-10T17:38:27.696Z,5.50
2018-12-10T17:40:55.908Z,5.50
2018-12-10T17:43:24.043Z,5.50
2018-12-10T17:45:52.613Z,5.60
2018-12-10T17:48:20.763Z,5.50
2018-12-10T17:50:49.075Z,5.50
2018-12-10T17:53:17.222Z,5.60
2018-12-10T17:55:45.390Z,5.80
2018-12-10T17:58:13.555Z,5.90
2018-12-10T18:00:41.871Z,6.00
2018-12-10T18:03:10.176Z,6.00
2018-12-10T18:05:38.306Z,6.00
2018-12-10T18:08:06.483Z,5.90
2018-12-10T18:10:34.638Z,5.80
2018-12-10T18:13:02.789Z,5.70
2018-12-10T18:15:30.936Z,5.80
2018-12-10T18:17:59.085Z,5.80
2018-12-10T18:20:27.268Z,5.80
2018-12-10T18:22:55.407Z,5.90
2018-12-10T18:25:23.605Z,5.90
2018-12-10T18:27:51.806Z,5.90
2018-12-10T18:30:20.178Z,5.90
2018-12-10T18:32:48.316Z,5.80
2018-12-10T18:35:17.309Z,5.70
2018-12-10T18:37:45.579Z,5.70
2018-12-10T18:40:13.827Z,5.70
2018-12-10T18:42:42.066Z,5.70
2018-12-10T18:45:11.880Z,5.80
2018-12-10T18:47:40.178Z,5.90
2018-12-10T18:50:08.406Z,5.80
2018-12-10T18:52:36.562Z,5.80
2018-12-10T18:55:05.499Z,5.80
2018-12-10T18:57:33.672Z,5.70
2018-12-10T19:00:02.125Z,5.70
2018-12-10T19:02:30.326Z,5.70
2018-12-10T19:04:58.531Z,5.70
2018-12-10T19:07:26.956Z,5.70
2018-12-10T19:09:56.100Z,5.70
2018-12-10T19:12:24.920Z,5.80
2018-12-10T19:14:53.742Z,5.80
2018-12-10T19:17:22.048Z,5.80
2018-12-10T19:19:50.274Z,5.70
2018-12-10T19:22:18.433Z,5.60
2018-12-10T19:24:46.657Z,5.70
2018-12-10T19:27:14.782Z,5.70
2018-12-10T19:29:43.008Z,5.70
2018-12-10T19:32:11.128Z,5.80
2018-12-10T19:34:39.265Z,5.80
2018-12-10T19:37:07.414Z,5.90
2018-12-10T19:39:35.805Z,6.00
2018-12-10T19:42:04.397Z,6.00
2018-12-10T19:44:32.556Z,5.90
2018-12-10T19:47:00.686Z,5.80
2018-12-10T19:49:28.980Z,5.70
2018-12-10T19:51:57.192Z,5.70
2018-12-10T19:54:25.383Z,5.60
2018-12-10T19:56:53.591Z,5.50
2018-12-10T19:59:21.819Z,5.50
2018-12-10T20:01:49.971Z,5.50
2018-12-10T20:04:18.562Z,5.50
2018-12-10T20:06:52.830Z,5.50
2018-12-10T20:09:20.967Z,5.40
2018-12-10T20:11:49.189Z,5.50
2018-12-10T20:14:17.482Z,5.40
2018-12-10T20:16:47.173Z,5.40
2018-12-10T20:19:15.458Z,5.40
2018-12-10T20:21:43.716Z,5.30
2018-12-10T20:24:11.849Z,5.30
2018-12-10T20:26:40.000Z,5.50
2018-12-10T20:29:08.248Z,5.50
2018-12-10T20:31:36.396Z,5.60
2018-12-10T20:34:04.587Z,5.60
2018-12-10T20:36:32.836Z,5.60
2018-12-10T20:39:01.109Z,5.60
2018-12-10T20:41:31.261Z,5.60
2018-12-10T20:43:59.414Z,5.70
2018-12-10T20:46:27.545Z,5.80
2018-12-10T20:48:55.771Z,5.80
2018-12-10T20:51:23.912Z,5.90
2018-12-10T20:53:52.077Z,6.00
2018-12-10T20:56:20.222Z,5.90
2018-12-10T20:58:48.365Z,5.80
2018-12-10T21:01:16.534Z,5.70
2018-12-10T21:03:44.680Z,5.70
2018-12-10T21:09:10.487Z,5.80
2018-12-10T21:11:38.905Z,5.80
2018-12-10T21:14:07.097Z,5.80
2018-12-10T21:16:35.432Z,5.90
2018-12-10T21:19:03.687Z,6.00
2018-12-10T21:21:32.329Z,6.10
2018-12-10T21:24:00.567Z,6.10
2018-12-10T21:26:28.977Z,6.10
2018-12-10T21:28:57.165Z,6.20
2018-12-10T21:31:25.434Z,6.30
2018-12-10T21:33:53.567Z,6.20
2018-12-10T21:36:21.700Z,6.10
2018-12-10T21:38:49.912Z,5.90
2018-12-10T21:41:18.046Z,5.80
2018-12-10T21:43:46.455Z,5.70
2018-12-10T21:46:14.653Z,5.70
2018-12-10T21:48:42.805Z,5.70
2018-12-10T21:51:10.931Z,5.80
2018-12-10T21:53:39.091Z,5.90
2018-12-10T21:56:07.289Z,5.90
2018-12-10T21:58:35.445Z,5.90
2018-12-10T22:01:03.573Z,5.90
2018-12-10T22:03:31.722Z,5.90
2018-12-10T22:06:00.859Z,6.00
2018-12-10T22:08:29.014Z,6.10
2018-12-10T22:10:57.841Z,6.30
2018-12-10T22:13:25.973Z,6.30
2018-12-10T22:15:55.176Z,6.40
2018-12-10T22:18:23.500Z,6.30
2018-12-10T22:20:51.668Z,6.30
2018-12-10T22:23:19.971Z,6.20
2018-12-10T22:25:48.172Z,6.20
2018-12-10T22:28:16.312Z,6.10
2018-12-10T22:30:44.629Z,6.10
2018-12-10T22:33:12.947Z,6.00
2018-12-10T22:35:41.236Z,6.00
2018-12-10T22:38:09.466Z,6.00
2018-12-10T22:40:37.645Z,6.00
2018-12-10T22:43:05.848Z,6.10
2018-12-10T22:45:34.319Z,6.30
2018-12-10T22:48:02.474Z,6.10
2018-12-10T22:50:31.607Z,6.00
2018-12-10T22:52:59.798Z,6.00
2018-12-10T22:55:28.074Z,5.90
2018-12-10T22:57:56.250Z,5.80
2018-12-10T23:00:26.383Z,5.70
2018-12-10T23:02:54.629Z,5.80
2018-12-10T23:05:22.756Z,5.80
2018-12-10T23:07:50.901Z,5.90
2018-12-10T23:10:19.785Z,5.80
2018-12-10T23:12:47.922Z,5.80
2018-12-10T23:15:16.127Z,5.90
2018-12-10T23:17:44.646Z,6.00
2018-12-10T23:20:12.848Z,5.90
2018-12-10T23:22:40.994Z,6.00
2018-12-10T23:25:09.136Z,6.10
2018-12-10T23:27:37.262Z,6.20
2018-12-10T23:30:05.702Z,6.20
2018-12-10T23:32:33.864Z,6.10
2018-12-10T23:35:01.999Z,6.00
2018-12-10T23:37:31.282Z,6.00
2018-12-10T23:39:59.429Z,6.10
2018-12-10T23:42:27.603Z,6.20
2018-12-10T23:44:55.734Z,6.20
2018-12-10T23:47:23.986Z,6.20
2018-12-10T23:49:52.160Z,6.20
2018-12-10T23:52:20.435Z,6.20
2018-12-10T23:54:48.701Z,6.10
2018-12-10T23:57:16.978Z,6.10
2018-12-10T23:59:45.186Z,6.00
